USCGC Polar Sea — NRUO — position and weather

sailwx.info

Track history (hours):
 
Tides and Currents Weather Stations Pressure Air Temp Water Temp Dewpoint Dewpoint Depression Visibility Wind Speed Wind Dir Waves Ship Positions

Oceanographic research ship USCGC Polar Sea (USA)

Ship's website: http://www.uscg.mil/pacarea/polarsea/home.htm

Detailed information on ship capabilities available from University of Delaware's Ocean Information Center and ARCUS's ALIAS (Arctic Logistics Information and Support) project.

Last reported at 2010-Sep-16 02:52 UTC. Time now 2019-Nov-20 09:23 UTC.
Position N 47°35' W 122°21'.
Warning: this ship's position is years out of date!

AWS

Date/timePositionNaut miles runAvg speedWind from/ knotsBaromVisibWave heightAir tempDewpointWater temp
2010-Sep-16 02:52N 47°35' W 122°21'0 0.0
2010-Sep-16 01:46N 47°35' W 122°21'0 0.0
2010-Sep-16 00:35N 47°35' W 122°21'0 0.0
2010-Sep-15 23:35N 47°35' W 122°21'0 0.0
2010-Sep-15 23:18N 47°35' W 122°21'0 0.0
2010-Sep-15 21:32N 47°35' W 122°21'0 0.1
2010-Sep-15 17:42N 47°36' W 122°21'1 5.4
2010-Sep-15 17:30N 47°36' W 122°22'7 0.2
2010-Sep-13 20:42N 47°34' W 122°32'0 0.0
2010-Sep-13 19:31N 47°34' W 122°32'4 4.2
2010-Sep-13 18:32N 47°35' W 122°26'3 5.2
2010-Sep-13 17:57N 47°36' W 122°22'0 0.7
2010-Sep-13 17:20N 47°35' W 122°21'0 0.0
2010-Sep-13 16:09N 47°35' W 122°21'  
Track history (hours):
 
Tides and Currents Weather Stations Pressure Air Temp Water Temp Dewpoint Dewpoint Depression Visibility Wind Speed Wind Dir Waves Ship Positions

Oceanographic research ship USCGC Polar Sea (USA)

Ship's website: http://www.uscg.mil/pacarea/polarsea/home.htm

Detailed information on ship capabilities available from University of Delaware's Ocean Information Center and ARCUS's ALIAS (Arctic Logistics Information and Support) project.

Last reported at 2010-Sep-16 02:52 UTC. Time now 2019-Nov-20 09:23 UTC.
Position N 47°35' W 122°21'.
Warning: this ship's position is years out of date!

AWS

Date/timePositionNaut miles runAvg speedWind from/ knotsBaromVisibWave heightAir tempDewpointWater temp
2010-Sep-16 02:52N 47°35' W 122°21'0 0.0
2010-Sep-16 01:46N 47°35' W 122°21'0 0.0
2010-Sep-16 00:35N 47°35' W 122°21'0 0.0
2010-Sep-15 23:35N 47°35' W 122°21'0 0.0
2010-Sep-15 23:18N 47°35' W 122°21'0 0.0
2010-Sep-15 21:32N 47°35' W 122°21'0 0.1
2010-Sep-15 17:42N 47°36' W 122°21'1 5.4
2010-Sep-15 17:30N 47°36' W 122°22'7 0.2
2010-Sep-13 20:42N 47°34' W 122°32'0 0.0
2010-Sep-13 19:31N 47°34' W 122°32'4 4.2
2010-Sep-13 18:32N 47°35' W 122°26'3 5.2
2010-Sep-13 17:57N 47°36' W 122°22'0 0.7
2010-Sep-13 17:20N 47°35' W 122°21'0 0.0
2010-Sep-13 16:09N 47°35' W 122°21'  

Dump ship's entire track history